Time;durP1;ratioP1;P1;durP2;ratioP2;P2;SDS_P1;SDS_P2;PMS_P1;PMS_P2;Temp;Humidity;BMP_temperature;BMP_pressure;BME280_temperature;BME280_humidity;BME280_pressure;Samples;Min_cycle;Max_cycle;Signal;HPM_P1;HPM_P2
2022/11/18 00:00:02;;;;;;;;;;;19.80;65.20;;;;;;5051789;28;19979;-60
2022/11/18 00:02:28;;;;;;;;;;;19.80;65.20;;;;;;5052186;28;20350;-60
2022/11/18 00:04:53;;;;;;;;;;;19.80;65.20;;;;;;5052428;28;19932;-59
2022/11/18 00:07:19;;;;;;;;;;;19.80;65.20;;;;;;5051447;28;19935;-59
2022/11/18 00:09:44;;;;;;;;;;;19.80;65.20;;;;;;5052398;28;19929;-59
2022/11/18 00:14:54;;;;;;;;;;;19.80;65.20;;;;;;5051330;28;20384;-59
2022/11/18 00:17:19;;;;;;;;;;;19.80;65.20;;;;;;5051794;28;19924;-59
2022/11/18 00:19:45;;;;;;;;;;;19.70;65.10;;;;;;5051092;28;19964;-59
2022/11/18 00:22:11;;;;;;;;;;;19.80;65.20;;;;;;5051382;28;19925;-59
2022/11/18 00:24:36;;;;;;;;;;;19.70;65.20;;;;;;5052147;28;19928;-59
2022/11/18 00:27:02;;;;;;;;;;;19.70;65.20;;;;;;5050803;28;19925;-59
2022/11/18 00:29:27;;;;;;;;;;;19.70;65.20;;;;;;5051657;28;19951;-59
2022/11/18 00:31:53;;;;;;;;;;;19.70;65.20;;;;;;5052198;28;19925;-59
2022/11/18 00:34:19;;;;;;;;;;;19.70;65.20;;;;;;5051159;28;19932;-59
2022/11/18 00:36:44;;;;;;;;;;;19.70;65.20;;;;;;5052033;28;19925;-59
2022/11/18 00:39:10;;;;;;;;;;;19.70;65.10;;;;;;5051645;28;20418;-59
2022/11/18 00:44:20;;;;;;;;;;;19.70;65.10;;;;;;5051640;28;19925;-59
2022/11/18 00:46:45;;;;;;;;;;;19.70;65.10;;;;;;5052185;28;19924;-59
2022/11/18 00:49:11;;;;;;;;;;;19.70;65.10;;;;;;5050628;28;19929;-59
2022/11/18 00:51:36;;;;;;;;;;;19.60;65.00;;;;;;5051986;28;19979;-59
2022/11/18 00:54:02;;;;;;;;;;;19.70;65.10;;;;;;5052171;28;19931;-59
2022/11/18 00:56:28;;;;;;;;;;;19.60;65.00;;;;;;5051291;28;20118;-59
2022/11/18 00:58:53;;;;;;;;;;;19.60;65.00;;;;;;5055384;28;20031;-59
2022/11/18 01:01:18;;;;;;;;;;;19.60;65.00;;;;;;5055395;28;19966;-59
2022/11/18 01:03:44;;;;;;;;;;;19.60;65.00;;;;;;5054725;28;19947;-59
2022/11/18 01:06:09;;;;;;;;;;;19.60;65.00;;;;;;5055125;28;19970;-59
2022/11/18 01:08:35;;;;;;;;;;;19.60;65.00;;;;;;5055366;28;20013;-59
2022/11/18 01:13:18;;;;;;;;;;;19.60;65.10;;;;;;5054535;28;19925;-59
2022/11/18 01:13:52;;;;;;;;;;;19.60;65.00;;;;;;5054838;28;19931;-59
2022/11/18 01:16:18;;;;;;;;;;;19.60;65.00;;;;;;5069591;28;20176;-59
2022/11/18 01:18:44;;;;;;;;;;;19.60;65.00;;;;;;5055009;28;19928;-59
2022/11/18 01:21:09;;;;;;;;;;;19.50;65.00;;;;;;5054539;28;19992;-59
2022/11/18 01:23:34;;;;;;;;;;;19.50;64.90;;;;;;5054341;28;20445;-59
2022/11/18 01:26:02;;;;;;;;;;;19.50;64.90;;;;;;5054874;28;19925;-59
2022/11/18 01:28:28;;;;;;;;;;;19.50;64.90;;;;;;5054112;28;20812;-59
2022/11/18 01:30:54;;;;;;;;;;;19.50;64.80;;;;;;5053759;28;20388;-59
2022/11/18 01:33:19;;;;;;;;;;;19.50;64.90;;;;;;5054628;28;19992;-58
2022/11/18 01:35:44;;;;;;;;;;;19.50;64.90;;;;;;5054885;28;20366;-59
2022/11/18 01:38:10;;;;;;;;;;;19.50;64.80;;;;;;5053798;28;19925;-59
2022/11/18 01:40:36;;;;;;;;;;;19.50;64.90;;;;;;5054684;28;19931;-58
2022/11/18 01:43:01;;;;;;;;;;;19.50;64.90;;;;;;5054571;28;20364;-59
2022/11/18 01:45:28;;;;;;;;;;;19.50;64.90;;;;;;5053373;28;19924;-59
2022/11/18 01:48:12;;;;;;;;;;;19.50;64.80;;;;;;5054416;28;20376;-59
2022/11/18 01:50:39;;;;;;;;;;;19.50;64.80;;;;;;5054285;28;20293;-59
2022/11/18 01:53:05;;;;;;;;;;;19.40;64.80;;;;;;5053750;28;19932;-59
2022/11/18 01:55:32;;;;;;;;;;;19.40;64.70;;;;;;5054338;28;19937;-59
2022/11/18 01:58:01;;;;;;;;;;;19.40;64.70;;;;;;5069569;28;19925;-59
2022/11/18 02:00:26;;;;;;;;;;;19.40;64.70;;;;;;5053321;28;19932;-58
2022/11/18 02:02:52;;;;;;;;;;;19.40;64.70;;;;;;5054109;28;20407;-58
2022/11/18 02:05:17;;;;;;;;;;;19.40;64.70;;;;;;5053248;28;20063;-59
2022/11/18 02:07:43;;;;;;;;;;;19.40;64.70;;;;;;5069297;28;20439;-59
2022/11/18 02:10:19;;;;;;;;;;;19.40;64.70;;;;;;5053954;28;19929;-59
2022/11/18 02:12:45;;;;;;;;;;;19.40;64.70;;;;;;5053197;28;19956;-59
2022/11/18 02:15:10;;;;;;;;;;;19.40;64.70;;;;;;5053828;28;19964;-59
2022/11/18 02:18:02;;;;;;;;;;;19.40;64.70;;;;;;5054130;28;19925;-59
2022/11/18 02:20:28;;;;;;;;;;;19.40;64.70;;;;;;5051544;28;19925;-59
2022/11/18 02:23:09;;;;;;;;;;;19.40;64.70;;;;;;5069260;28;19925;-59
2022/11/18 02:25:38;;;;;;;;;;;19.40;64.70;;;;;;5053711;28;19924;-59
2022/11/18 02:28:32;;;;;;;;;;;19.40;64.70;;;;;;5052950;28;19924;-59
2022/11/18 02:30:59;;;;;;;;;;;19.40;64.60;;;;;;5033818;28;20347;-59
2022/11/18 02:33:27;;;;;;;;;;;19.40;64.60;;;;;;5068175;28;20376;-59
2022/11/18 02:35:55;;;;;;;;;;;19.40;64.60;;;;;;5053544;28;19932;-59
2022/11/18 02:38:24;;;;;;;;;;;19.30;64.50;;;;;;5068410;28;20443;-59
2022/11/18 02:40:54;;;;;;;;;;;19.30;64.50;;;;;;5052650;28;20303;-59
2022/11/18 02:43:32;;;;;;;;;;;19.30;64.60;;;;;;5053060;28;19986;-59
2022/11/18 02:46:02;;;;;;;;;;;19.30;64.60;;;;;;5068534;28;20391;-59
2022/11/18 02:48:29;;;;;;;;;;;19.30;64.60;;;;;;5052469;28;19939;-59
2022/11/18 02:50:54;;;;;;;;;;;19.30;64.50;;;;;;5068620;28;19990;-59
2022/11/18 02:53:20;;;;;;;;;;;19.30;64.50;;;;;;5053130;28;20280;-59
2022/11/18 02:55:46;;;;;;;;;;;19.30;64.50;;;;;;5067858;28;19920;-59
2022/11/18 02:58:12;;;;;;;;;;;19.30;64.50;;;;;;5068374;28;19925;-59
2022/11/18 03:00:37;;;;;;;;;;;19.30;64.50;;;;;;5070741;28;19924;-58
2022/11/18 03:03:21;;;;;;;;;;;19.30;64.50;;;;;;5072313;28;20003;-59
2022/11/18 03:05:52;;;;;;;;;;;19.30;64.60;;;;;;5072514;28;19925;-58
2022/11/18 03:08:19;;;;;;;;;;;19.30;64.50;;;;;;5088510;28;19934;-59
2022/11/18 03:10:50;;;;;;;;;;;19.30;64.50;;;;;;5061239;28;19925;-59
2022/11/18 03:13:19;;;;;;;;;;;19.30;64.50;;;;;;5068077;28;19948;-59
2022/11/18 03:15:51;;;;;;;;;;;19.30;64.50;;;;;;5067732;28;19925;-59
2022/11/18 03:18:19;;;;;;;;;;;19.20;64.40;;;;;;5067911;28;19925;-59
2022/11/18 03:20:48;;;;;;;;;;;19.20;64.40;;;;;;5052419;28;20008;-59
2022/11/18 03:23:15;;;;;;;;;;;19.20;64.40;;;;;;5051669;28;20078;-59
2022/11/18 03:25:43;;;;;;;;;;;19.20;64.40;;;;;;5068101;28;19925;-59
2022/11/18 03:28:11;;;;;;;;;;;19.20;64.40;;;;;;5052576;28;20510;-59
2022/11/18 03:30:38;;;;;;;;;;;19.20;64.40;;;;;;5067559;28;19928;-59
2022/11/18 03:33:08;;;;;;;;;;;19.20;64.30;;;;;;5068030;28;19925;-58
2022/11/18 03:35:34;;;;;;;;;;;19.20;64.40;;;;;;5068224;28;19960;-59
2022/11/18 03:38:10;;;;;;;;;;;19.20;64.40;;;;;;5067560;28;19924;-59
2022/11/18 03:40:36;;;;;;;;;;;19.20;64.40;;;;;;5068317;28;19924;-59
2022/11/18 03:43:03;;;;;;;;;;;19.20;64.40;;;;;;5067986;28;19925;-59
2022/11/18 03:45:42;;;;;;;;;;;19.20;64.30;;;;;;5067156;28;19933;-59
2022/11/18 03:48:13;;;;;;;;;;;19.20;64.40;;;;;;5052666;28;19924;-59
2022/11/18 03:50:39;;;;;;;;;;;19.20;64.40;;;;;;5067966;28;19924;-59
2022/11/18 03:53:05;;;;;;;;;;;19.20;64.40;;;;;;5051630;28;19928;-59
2022/11/18 03:55:32;;;;;;;;;;;19.20;64.40;;;;;;5067585;28;19971;-59
2022/11/18 03:58:09;;;;;;;;;;;19.20;64.30;;;;;;5067136;28;19925;-59
2022/11/18 04:00:39;;;;;;;;;;;19.20;64.90;;;;;;5052278;28;19925;-59
2022/11/18 04:03:04;;;;;;;;;;;19.20;64.30;;;;;;5067732;28;20346;-59
2022/11/18 04:05:34;;;;;;;;;;;19.20;64.30;;;;;;5051369;28;19925;-60
2022/11/18 04:08:03;;;;;;;;;;;19.20;64.30;;;;;;5068111;28;19972;-61
2022/11/18 04:10:34;;;;;;;;;;;19.20;64.30;;;;;;5051964;28;19932;-61
2022/11/18 04:13:19;;;;;;;;;;;19.20;64.20;;;;;;5066576;28;20454;-60
2022/11/18 04:15:44;;;;;;;;;;;19.20;64.20;;;;;;5067673;28;19971;-60
2022/11/18 04:18:10;;;;;;;;;;;19.20;64.20;;;;;;5052017;28;19928;-60
2022/11/18 04:20:36;;;;;;;;;;;19.20;64.10;;;;;;5051657;28;19932;-60
2022/11/18 04:23:02;;;;;;;;;;;19.20;64.20;;;;;;5052239;28;19924;-60
2022/11/18 04:25:27;;;;;;;;;;;19.20;64.10;;;;;;5051756;28;19932;-60
2022/11/18 04:27:53;;;;;;;;;;;19.20;64.20;;;;;;5051519;28;19976;-60
2022/11/18 04:30:18;;;;;;;;;;;19.30;64.20;;;;;;5052418;28;19958;-60
2022/11/18 04:32:44;;;;;;;;;;;19.30;64.10;;;;;;5055958;28;19924;-60
2022/11/18 04:35:09;;;;;;;;;;;19.30;64.10;;;;;;5054955;28;20054;-60
2022/11/18 04:37:35;;;;;;;;;;;19.30;64.10;;;;;;5056051;28;19970;-60
2022/11/18 04:40:00;;;;;;;;;;;19.30;64.10;;;;;;5055114;28;20394;-60
2022/11/18 04:42:26;;;;;;;;;;;19.30;64.10;;;;;;5055181;28;19935;-60
2022/11/18 04:44:51;;;;;;;;;;;19.40;64.10;;;;;;5055988;28;19925;-60
2022/11/18 04:47:17;;;;;;;;;;;19.40;64.10;;;;;;5054866;28;20702;-60
2022/11/18 04:49:42;;;;;;;;;;;19.40;64.10;;;;;;5055849;28;19925;-60
2022/11/18 04:52:08;;;;;;;;;;;19.40;64.10;;;;;;5055696;28;20036;-60
2022/11/18 04:54:33;;;;;;;;;;;19.40;64.00;;;;;;5054821;28;19924;-60
2022/11/18 04:56:59;;;;;;;;;;;19.40;64.00;;;;;;5055156;28;19928;-60
2022/11/18 04:59:25;;;;;;;;;;;19.40;64.00;;;;;;5055381;28;20011;-60
2022/11/18 05:01:50;;;;;;;;;;;19.40;64.00;;;;;;5054781;28;20019;-60
2022/11/18 05:04:17;;;;;;;;;;;19.50;64.00;;;;;;5054285;28;19972;-60
2022/11/18 05:06:42;;;;;;;;;;;19.50;64.00;;;;;;5054610;28;19925;-60
2022/11/18 05:09:08;;;;;;;;;;;19.50;63.90;;;;;;5054248;28;19936;-61
2022/11/18 05:14:17;;;;;;;;;;;19.50;63.90;;;;;;5054606;28;20349;-60
2022/11/18 05:16:43;;;;;;;;;;;19.50;63.90;;;;;;5054526;28;20423;-60
2022/11/18 05:19:09;;;;;;;;;;;19.50;63.90;;;;;;5054806;28;19929;-60
2022/11/18 05:21:34;;;;;;;;;;;19.50;63.90;;;;;;5055351;28;19939;-60
2022/11/18 05:24:00;;;;;;;;;;;19.60;63.90;;;;;;5054343;28;19921;-60
2022/11/18 05:26:26;;;;;;;;;;;19.60;64.00;;;;;;5054490;28;20015;-60
2022/11/18 05:28:51;;;;;;;;;;;19.60;63.90;;;;;;5054794;28;20011;-60
2022/11/18 05:31:17;;;;;;;;;;;19.60;63.90;;;;;;5053782;28;20031;-60
2022/11/18 05:33:42;;;;;;;;;;;19.60;63.80;;;;;;5055098;28;19978;-60
2022/11/18 05:36:12;;;;;;;;;;;19.60;63.80;;;;;;5054714;28;19928;-60
2022/11/18 05:38:37;;;;;;;;;;;19.60;63.80;;;;;;5054164;28;20273;-60
2022/11/18 05:41:03;;;;;;;;;;;19.60;63.80;;;;;;5054846;28;20078;-60
2022/11/18 05:43:28;;;;;;;;;;;19.70;63.80;;;;;;5052971;28;19932;-60
2022/11/18 05:45:54;;;;;;;;;;;19.70;63.80;;;;;;5054730;28;19925;-60
2022/11/18 05:48:19;;;;;;;;;;;19.70;63.80;;;;;;5054108;28;19921;-60
2022/11/18 05:50:46;;;;;;;;;;;19.70;63.80;;;;;;5053690;28;19925;-60
2022/11/18 05:53:11;;;;;;;;;;;19.70;63.80;;;;;;5053998;28;19931;-60
2022/11/18 05:55:53;;;;;;;;;;;19.70;63.80;;;;;;5054284;28;19925;-60
2022/11/18 05:58:19;;;;;;;;;;;19.70;63.80;;;;;;5053290;28;19982;-60
2022/11/18 06:00:44;;;;;;;;;;;19.70;63.80;;;;;;5054294;28;19924;-60
2022/11/18 06:03:28;;;;;;;;;;;19.70;63.80;;;;;;5053874;28;19932;-60
2022/11/18 06:05:54;;;;;;;;;;;19.70;63.80;;;;;;5035879;28;20428;-60
2022/11/18 06:08:19;;;;;;;;;;;19.70;63.80;;;;;;5054101;28;19964;-60
2022/11/18 06:10:45;;;;;;;;;;;19.70;63.70;;;;;;5054218;28;20315;-61
2022/11/18 06:13:13;;;;;;;;;;;19.80;63.70;;;;;;5052774;28;19925;-60
2022/11/18 06:15:39;;;;;;;;;;;19.80;63.70;;;;;;5054262;28;19933;-60
2022/11/18 06:18:09;;;;;;;;;;;19.80;63.70;;;;;;5054312;28;19925;-60
2022/11/18 06:20:35;;;;;;;;;;;19.70;63.60;;;;;;5035303;28;19936;-60
2022/11/18 06:23:00;;;;;;;;;;;19.80;63.70;;;;;;5053992;28;19925;-60
2022/11/18 06:25:26;;;;;;;;;;;19.80;63.60;;;;;;5052993;28;19932;-60
2022/11/18 06:27:53;;;;;;;;;;;19.80;63.60;;;;;;5053341;28;20431;-60
2022/11/18 06:30:18;;;;;;;;;;;19.80;63.60;;;;;;5053276;28;20304;-60
2022/11/18 06:32:44;;;;;;;;;;;19.80;63.60;;;;;;5052558;28;20368;-60
2022/11/18 06:35:09;;;;;;;;;;;19.80;63.60;;;;;;5034975;28;19963;-60
2022/11/18 06:37:35;;;;;;;;;;;19.80;63.60;;;;;;5052370;28;20354;-60
2022/11/18 06:40:00;;;;;;;;;;;19.80;63.60;;;;;;5053371;28;19924;-60
2022/11/18 06:45:13;;;;;;;;;;;19.80;63.60;;;;;;5053592;28;20011;-60
2022/11/18 06:47:38;;;;;;;;;;;19.80;63.60;;;;;;5052883;28;20043;-60
2022/11/18 06:50:04;;;;;;;;;;;19.80;63.50;;;;;;5053917;28;19979;-60
2022/11/18 06:52:29;;;;;;;;;;;19.80;63.50;;;;;;5053464;28;19951;-60
2022/11/18 06:54:55;;;;;;;;;;;19.80;63.50;;;;;;5052294;28;20015;-60
2022/11/18 06:57:20;;;;;;;;;;;19.80;63.50;;;;;;5053473;28;20015;-60
2022/11/18 06:59:46;;;;;;;;;;;19.80;63.50;;;;;;5053792;28;19925;-60
2022/11/18 07:02:11;;;;;;;;;;;19.90;63.50;;;;;;5052258;28;19925;-60
2022/11/18 07:04:39;;;;;;;;;;;19.90;63.50;;;;;;5035792;28;19929;-59
2022/11/18 07:07:08;;;;;;;;;;;19.80;63.40;;;;;;5053407;28;20392;-59
2022/11/18 07:09:34;;;;;;;;;;;19.90;63.50;;;;;;5052912;28;20019;-60
2022/11/18 07:11:59;;;;;;;;;;;19.90;63.50;;;;;;5053423;28;20385;-60
2022/11/18 07:14:25;;;;;;;;;;;19.90;63.50;;;;;;5052771;28;19925;-59
2022/11/18 07:16:50;;;;;;;;;;;19.90;63.40;;;;;;5052368;28;19932;-60
2022/11/18 07:19:16;;;;;;;;;;;19.90;63.40;;;;;;5052951;28;19924;-60
2022/11/18 07:21:42;;;;;;;;;;;19.90;63.50;;;;;;5053135;28;19925;-59
2022/11/18 07:24:07;;;;;;;;;;;19.90;63.40;;;;;;5052992;28;19924;-60
2022/11/18 07:26:33;;;;;;;;;;;19.90;63.40;;;;;;5052650;28;19924;-59
2022/11/18 07:28:59;;;;;;;;;;;19.90;63.40;;;;;;5052499;28;20371;-60
2022/11/18 07:31:24;;;;;;;;;;;19.90;63.50;;;;;;5052522;28;19929;-59
2022/11/18 07:33:53;;;;;;;;;;;19.90;63.30;;;;;;5052956;28;19963;-59
2022/11/18 07:36:22;;;;;;;;;;;19.90;63.20;;;;;;5052036;28;19924;-60
2022/11/18 07:38:48;;;;;;;;;;;19.90;63.20;;;;;;5052914;28;19925;-60
2022/11/18 07:41:14;;;;;;;;;;;19.90;63.20;;;;;;5052896;28;19925;-59
2022/11/18 07:43:39;;;;;;;;;;;19.90;63.20;;;;;;5051989;28;19929;-59
2022/11/18 07:46:09;;;;;;;;;;;19.90;63.20;;;;;;5052782;28;19950;-59
2022/11/18 07:48:34;;;;;;;;;;;19.90;63.30;;;;;;5053127;28;19981;-60
2022/11/18 07:51:00;;;;;;;;;;;19.90;63.30;;;;;;5051897;28;19928;-60
2022/11/18 07:53:28;;;;;;;;;;;19.90;63.30;;;;;;5052698;28;19939;-60
2022/11/18 07:55:53;;;;;;;;;;;19.90;63.40;;;;;;5034696;28;19921;-59
2022/11/18 07:58:19;;;;;;;;;;;19.90;63.50;;;;;;5051508;28;19928;-59
2022/11/18 08:00:44;;;;;;;;;;;19.90;63.50;;;;;;5052700;28;19980;-60
2022/11/18 08:03:10;;;;;;;;;;;19.90;63.50;;;;;;5052729;28;19924;-59
2022/11/18 08:05:35;;;;;;;;;;;20.00;63.70;;;;;;5052833;28;19924;-59
2022/11/18 08:08:01;;;;;;;;;;;20.00;63.70;;;;;;5056836;28;19925;-59
2022/11/18 08:10:26;;;;;;;;;;;19.90;63.60;;;;;;5056746;28;19935;-59
2022/11/18 08:12:52;;;;;;;;;;;20.00;63.70;;;;;;5055794;28;19924;-59
2022/11/18 08:15:17;;;;;;;;;;;20.00;63.80;;;;;;5038548;28;19924;-59
2022/11/18 08:17:43;;;;;;;;;;;19.90;63.70;;;;;;5056880;28;19925;-60
2022/11/18 08:20:09;;;;;;;;;;;20.00;63.80;;;;;;5055838;28;19925;-59
2022/11/18 08:22:34;;;;;;;;;;;20.00;63.80;;;;;;5056715;28;19968;-59
2022/11/18 08:25:00;;;;;;;;;;;20.00;63.80;;;;;;5056060;28;19972;-60
2022/11/18 08:27:25;;;;;;;;;;;20.00;63.90;;;;;;5055677;28;20364;-60
2022/11/18 08:29:50;;;;;;;;;;;20.00;63.90;;;;;;5056634;28;19925;-60
2022/11/18 08:32:16;;;;;;;;;;;20.00;64.00;;;;;;5055508;28;20350;-60
2022/11/18 08:34:41;;;;;;;;;;;20.00;64.00;;;;;;5056541;28;19954;-60
2022/11/18 08:37:07;;;;;;;;;;;20.00;64.00;;;;;;5056460;28;19926;-60
2022/11/18 08:39:32;;;;;;;;;;;20.00;64.10;;;;;;5055160;28;19925;-60
2022/11/18 08:41:58;;;;;;;;;;;20.00;64.20;;;;;;5049587;28;19932;-59
2022/11/18 08:44:23;;;;;;;;;;;20.10;64.20;;;;;;5041407;28;20386;-58
2022/11/18 08:46:49;;;;;;;;;;;20.00;64.20;;;;;;5060523;28;19952;-59
2022/11/18 08:49:14;;;;;;;;;;;20.00;64.20;;;;;;5044145;28;19933;-59
2022/11/18 08:51:40;;;;;;;;;;;20.10;64.30;;;;;;5051196;28;20015;-59
2022/11/18 08:54:05;;;;;;;;;;;20.10;64.30;;;;;;5054784;28;19925;-59
2022/11/18 08:56:31;;;;;;;;;;;20.10;64.30;;;;;;5054743;28;19931;-59
2022/11/18 08:58:56;;;;;;;;;;;20.10;64.30;;;;;;5055390;28;19955;-59
2022/11/18 09:01:22;;;;;;;;;;;20.10;64.30;;;;;;5054547;28;19925;-58
2022/11/18 09:03:47;;;;;;;;;;;20.10;64.30;;;;;;5055356;28;19925;-59
2022/11/18 09:06:14;;;;;;;;;;;20.20;64.40;;;;;;5054862;28;19971;-58
2022/11/18 09:08:39;;;;;;;;;;;20.10;64.40;;;;;;5054579;28;19929;-58
2022/11/18 09:11:09;;;;;;;;;;;20.20;64.30;;;;;;5055095;28;20012;-58
2022/11/18 09:13:34;;;;;;;;;;;20.20;64.40;;;;;;5055053;28;20380;-59
2022/11/18 09:16:00;;;;;;;;;;;20.20;64.40;;;;;;5054565;28;19974;-59
2022/11/18 09:18:25;;;;;;;;;;;20.10;64.40;;;;;;5053634;28;19929;-59
2022/11/18 09:20:58;;;;;;;;;;;20.10;64.40;;;;;;5054847;28;20343;-59
2022/11/18 09:23:23;;;;;;;;;;;20.20;64.50;;;;;;5054250;28;19932;-59
2022/11/18 09:25:55;;;;;;;;;;;20.10;64.50;;;;;;5054682;28;19928;-59
2022/11/18 09:28:21;;;;;;;;;;;20.20;64.60;;;;;;5053821;28;19925;-59
2022/11/18 09:30:46;;;;;;;;;;;20.20;64.50;;;;;;5055039;28;19928;-59
2022/11/18 09:33:12;;;;;;;;;;;20.20;64.60;;;;;;5054509;28;20370;-59
2022/11/18 09:35:40;;;;;;;;;;;20.20;64.50;;;;;;5054090;28;19932;-59
2022/11/18 09:38:06;;;;;;;;;;;20.10;64.50;;;;;;5037096;28;20321;-58
2022/11/18 09:40:31;;;;;;;;;;;20.10;64.60;;;;;;5054495;28;19970;-59
2022/11/18 09:43:03;;;;;;;;;;;20.10;64.50;;;;;;5069077;28;19925;-60
2022/11/18 09:45:37;;;;;;;;;;;20.20;64.70;;;;;;5069703;28;19936;-60
2022/11/18 09:48:09;;;;;;;;;;;20.20;64.60;;;;;;5054672;28;19977;-61
2022/11/18 09:50:34;;;;;;;;;;;20.10;64.60;;;;;;5069528;28;19925;-59
2022/11/18 09:53:05;;;;;;;;;;;20.20;64.60;;;;;;5069695;28;19932;-59
2022/11/18 09:55:31;;;;;;;;;;;20.20;64.60;;;;;;5069717;28;19948;-59
2022/11/18 09:57:57;;;;;;;;;;;20.10;64.60;;;;;;5069094;28;20372;-58
2022/11/18 10:00:23;;;;;;;;;;;20.10;64.50;;;;;;5054173;28;19925;-58
2022/11/18 10:02:59;;;;;;;;;;;20.10;64.20;;;;;;5054139;28;19924;-59
2022/11/18 10:05:26;;;;;;;;;;;20.10;64.40;;;;;;5057930;28;20289;-60
2022/11/18 10:07:57;;;;;;;;;;;20.10;64.40;;;;;;5064915;28;19933;-60
2022/11/18 10:10:41;;;;;;;;;;;20.10;64.40;;;;;;5041021;28;20343;-60
2022/11/18 10:13:27;;;;;;;;;;;20.10;64.60;;;;;;5035859;28;20403;-61
2022/11/18 10:15:59;;;;;;;;;;;20.10;64.50;;;;;;5036033;28;19925;-60
2022/11/18 10:18:29;;;;;;;;;;;20.10;64.50;;;;;;5034771;28;19925;-61
2022/11/18 10:20:58;;;;;;;;;;;20.10;64.60;;;;;;5035972;28;20387;-61
2022/11/18 10:23:34;;;;;;;;;;;20.10;64.60;;;;;;5035707;28;19925;-61
2022/11/18 10:26:00;;;;;;;;;;;20.00;64.60;;;;;;5034982;28;20384;-61
2022/11/18 10:28:28;;;;;;;;;;;20.10;64.60;;;;;;5052789;28;19929;-62
2022/11/18 10:30:54;;;;;;;;;;;20.10;64.60;;;;;;5056330;28;20396;-61
2022/11/18 10:33:26;;;;;;;;;;;20.10;64.60;;;;;;5069159;28;19990;-60
2022/11/18 10:36:08;;;;;;;;;;;20.00;64.50;;;;;;5065017;28;22479;-61
2022/11/18 10:38:34;;;;;;;;;;;20.00;64.60;;;;;;5052029;28;20315;-61
2022/11/18 10:41:10;;;;;;;;;;;20.00;64.50;;;;;;5055842;28;19929;-61
2022/11/18 10:43:49;;;;;;;;;;;20.00;64.60;;;;;;5070422;28;19931;-61
2022/11/18 10:46:15;;;;;;;;;;;20.00;64.50;;;;;;5055776;28;19929;-61
2022/11/18 10:48:40;;;;;;;;;;;20.00;64.60;;;;;;5045603;28;20035;-61
2022/11/18 10:51:22;;;;;;;;;;;20.00;64.50;;;;;;5054009;28;19928;-61
2022/11/18 10:53:48;;;;;;;;;;;19.90;64.50;;;;;;5052324;28;19925;-62
2022/11/18 10:56:14;;;;;;;;;;;20.00;64.40;;;;;;5052643;28;20012;-61
2022/11/18 10:58:41;;;;;;;;;;;20.00;64.50;;;;;;5053112;28;19929;-61
2022/11/18 11:01:20;;;;;;;;;;;20.00;64.60;;;;;;5052394;28;20400;-61
2022/11/18 11:03:55;;;;;;;;;;;19.90;64.50;;;;;;5042807;28;19932;-61
2022/11/18 11:06:22;;;;;;;;;;;19.90;64.60;;;;;;5047418;28;19975;-61
2022/11/18 11:08:49;;;;;;;;;;;19.90;64.50;;;;;;5045831;28;19924;-61
2022/11/18 11:11:18;;;;;;;;;;;19.90;64.50;;;;;;5046190;28;19924;-61
2022/11/18 11:13:43;;;;;;;;;;;19.90;64.50;;;;;;5069317;28;19924;-61
2022/11/18 11:16:09;;;;;;;;;;;19.90;64.40;;;;;;5060298;28;20386;-62
2022/11/18 11:18:41;;;;;;;;;;;19.90;64.40;;;;;;5077033;28;19932;-60
2022/11/18 11:21:10;;;;;;;;;;;19.90;64.50;;;;;;5061201;28;19929;-60
2022/11/18 11:23:35;;;;;;;;;;;19.90;64.40;;;;;;5063243;28;19931;-60
2022/11/18 11:26:02;;;;;;;;;;;19.90;64.50;;;;;;5039667;28;19932;-60
2022/11/18 11:28:34;;;;;;;;;;;19.90;64.50;;;;;;5076096;28;19929;-61
2022/11/18 11:31:20;;;;;;;;;;;19.90;64.50;;;;;;5078850;28;19928;-60
2022/11/18 11:33:46;;;;;;;;;;;19.90;64.50;;;;;;5064053;28;19931;-60
2022/11/18 11:36:31;;;;;;;;;;;19.90;64.50;;;;;;5061912;28;20003;-60
2022/11/18 11:39:06;;;;;;;;;;;19.90;64.50;;;;;;5069864;28;19956;-61
2022/11/18 11:41:38;;;;;;;;;;;19.90;64.20;;;;;;5068236;28;19925;-62
2022/11/18 11:44:17;;;;;;;;;;;19.90;64.40;;;;;;5067932;28;19932;-61
2022/11/18 11:46:43;;;;;;;;;;;19.90;64.40;;;;;;5052645;28;20333;-61
2022/11/18 11:49:22;;;;;;;;;;;19.90;64.20;;;;;;5051468;28;19978;-61
2022/11/18 11:51:52;;;;;;;;;;;19.90;64.30;;;;;;5067591;28;19928;-62
2022/11/18 11:54:17;;;;;;;;;;;19.90;64.30;;;;;;5068223;28;20019;-61
2022/11/18 11:57:01;;;;;;;;;;;19.80;64.30;;;;;;5051692;28;20008;-61
2022/11/18 11:59:29;;;;;;;;;;;19.80;64.40;;;;;;5052596;28;20364;-61
2022/11/18 12:02:12;;;;;;;;;;;19.80;64.40;;;;;;5067577;28;19986;-62
2022/11/18 12:04:40;;;;;;;;;;;19.80;64.40;;;;;;5033786;28;20296;-61
2022/11/18 12:07:06;;;;;;;;;;;19.80;64.50;;;;;;5050772;28;19927;-61
2022/11/18 12:09:31;;;;;;;;;;;19.80;64.50;;;;;;5052245;28;20011;-61
2022/11/18 12:12:00;;;;;;;;;;;19.80;64.50;;;;;;5033426;28;20011;-60
2022/11/18 12:14:35;;;;;;;;;;;19.80;64.70;;;;;;5052043;28;19925;-61
2022/11/18 12:17:14;;;;;;;;;;;19.80;64.70;;;;;;5051965;28;19935;-61
2022/11/18 12:19:39;;;;;;;;;;;19.80;64.80;;;;;;5067877;28;19929;-61
2022/11/18 12:22:05;;;;;;;;;;;19.80;64.70;;;;;;5051740;28;20407;-61
2022/11/18 12:24:37;;;;;;;;;;;19.80;64.70;;;;;;5051609;28;20016;-60
2022/11/18 12:27:06;;;;;;;;;;;19.80;64.70;;;;;;5051674;28;19971;-60
2022/11/18 12:29:49;;;;;;;;;;;19.80;64.70;;;;;;5052292;28;20400;-61
2022/11/18 12:32:24;;;;;;;;;;;19.80;64.60;;;;;;5051111;28;19948;-60
2022/11/18 12:35:03;;;;;;;;;;;19.80;64.70;;;;;;5052360;28;19925;-60
2022/11/18 12:37:28;;;;;;;;;;;19.80;64.70;;;;;;5051994;28;19926;-62
2022/11/18 12:39:54;;;;;;;;;;;19.90;64.60;;;;;;5050282;28;19932;-62
2022/11/18 12:45:37;;;;;;;;;;;19.90;64.60;;;;;;5050128;28;20023;-58
2022/11/18 12:48:03;;;;;;;;;;;19.90;64.60;;;;;;5051205;28;20377;-65
2022/11/18 12:50:47;;;;;;;;;;;19.90;64.60;;;;;;5052676;28;19925;-65
2022/11/18 12:53:26;;;;;;;;;;;19.90;64.70;;;;;;5054356;28;19982;-66
2022/11/18 12:55:51;;;;;;;;;;;19.90;64.40;;;;;;5071338;28;19947;-66
2022/11/18 12:58:23;;;;;;;;;;;20.00;64.30;;;;;;5055387;28;20360;-61
2022/11/18 13:00:51;;;;;;;;;;;20.00;64.20;;;;;;5055012;28;19978;-65
2022/11/18 13:03:20;;;;;;;;;;;20.10;64.10;;;;;;5055510;28;19924;-61
2022/11/18 13:05:45;;;;;;;;;;;20.20;63.80;;;;;;5055786;28;19925;-65
2022/11/18 13:08:14;;;;;;;;;;;20.30;64.00;;;;;;5054911;28;19999;-62
2022/11/18 13:10:43;;;;;;;;;;;20.30;63.80;;;;;;5049301;28;20206;-61
2022/11/18 13:13:20;;;;;;;;;;;20.30;63.30;;;;;;5045996;28;19924;-60
2022/11/18 13:18:30;;;;;;;;;;;20.30;63.60;;;;;;5045049;28;20027;-60
2022/11/18 13:20:56;;;;;;;;;;;20.30;63.70;;;;;;5058653;28;20019;-61
2022/11/18 13:26:11;;;;;;;;;;;20.30;63.90;;;;;;5062653;28;19933;-62
2022/11/18 13:28:45;;;;;;;;;;;20.30;63.90;;;;;;5056332;28;19929;-61
2022/11/18 13:31:13;;;;;;;;;;;20.30;63.80;;;;;;5054888;28;19967;-60
2022/11/18 13:33:39;;;;;;;;;;;20.20;63.80;;;;;;5057718;28;19955;-61
2022/11/18 13:36:19;;;;;;;;;;;20.30;63.80;;;;;;5064022;28;19947;-61
2022/11/18 13:38:57;;;;;;;;;;;20.30;63.90;;;;;;5061832;28;19925;-60
2022/11/18 13:41:23;;;;;;;;;;;20.30;64.00;;;;;;5061050;28;19924;-61
2022/11/18 13:43:49;;;;;;;;;;;20.30;64.00;;;;;;5063480;28;19978;-60
2022/11/18 13:46:16;;;;;;;;;;;20.30;64.10;;;;;;5064904;28;20007;-61
2022/11/18 13:48:45;;;;;;;;;;;20.30;64.10;;;;;;5059774;28;19947;-59
2022/11/18 13:51:11;;;;;;;;;;;20.30;64.00;;;;;;5063608;28;19924;-59
2022/11/18 13:53:37;;;;;;;;;;;20.30;64.10;;;;;;5070720;28;19970;-59
2022/11/18 13:56:03;;;;;;;;;;;20.30;64.10;;;;;;5073354;28;19924;-59
2022/11/18 13:58:33;;;;;;;;;;;20.30;64.10;;;;;;5089724;28;19929;-59
2022/11/18 14:01:00;;;;;;;;;;;20.30;64.00;;;;;;5089419;28;20384;-62
2022/11/18 14:03:27;;;;;;;;;;;20.30;64.10;;;;;;5088546;28;19931;-59
2022/11/18 14:05:55;;;;;;;;;;;20.30;64.10;;;;;;5073812;28;19925;-61
2022/11/18 14:08:28;;;;;;;;;;;20.30;64.30;;;;;;5074114;28;20393;-60
2022/11/18 14:10:53;;;;;;;;;;;20.30;64.20;;;;;;5072979;28;20057;-60
2022/11/18 14:13:28;;;;;;;;;;;20.30;64.20;;;;;;5073733;28;20391;-59
2022/11/18 14:15:54;;;;;;;;;;;20.30;64.20;;;;;;5072650;28;19971;-60
2022/11/18 14:18:24;;;;;;;;;;;20.30;64.30;;;;;;5073242;28;19924;-60
2022/11/18 14:20:50;;;;;;;;;;;20.30;64.20;;;;;;5073481;28;20265;-60
2022/11/18 14:23:16;;;;;;;;;;;20.30;64.20;;;;;;5073207;28;19924;-60
2022/11/18 14:25:42;;;;;;;;;;;20.30;64.10;;;;;;5088041;28;20398;-59
2022/11/18 14:28:16;;;;;;;;;;;20.30;64.10;;;;;;5073182;28;19970;-60
2022/11/18 14:30:44;;;;;;;;;;;20.30;64.10;;;;;;5072086;28;19924;-60
2022/11/18 14:33:19;;;;;;;;;;;20.30;64.10;;;;;;5086772;28;19968;-59
2022/11/18 14:36:11;;;;;;;;;;;20.30;63.90;;;;;;5073535;28;19954;-60
2022/11/18 14:38:46;;;;;;;;;;;20.30;63.60;;;;;;5070974;28;19928;-60
2022/11/18 14:41:12;;;;;;;;;;;20.30;63.60;;;;;;5073821;28;19924;-59